sensor_id;sensor_type;location;lat;lon;timestamp;temperature;humidity
3923;DHT22;1976;51.694;6.256;2023-07-29T00:01:51;19.30;99.90
3923;DHT22;1976;51.694;6.256;2023-07-29T00:04:19;19.30;99.90
3923;DHT22;1976;51.694;6.256;2023-07-29T00:06:45;19.40;99.90
3923;DHT22;1976;51.694;6.256;2023-07-29T00:09:11;19.50;99.90
3923;DHT22;1976;51.694;6.256;2023-07-29T00:11:38;19.50;99.90
3923;DHT22;1976;51.694;6.256;2023-07-29T00:14:04;19.50;99.90
3923;DHT22;1976;51.694;6.256;2023-07-29T00:16:29;19.60;99.90
3923;DHT22;1976;51.694;6.256;2023-07-29T00:18:55;19.50;99.90
3923;DHT22;1976;51.694;6.256;2023-07-29T00:21:20;19.50;99.90
3923;DHT22;1976;51.694;6.256;2023-07-29T00:23:46;19.60;99.90
3923;DHT22;1976;51.694;6.256;2023-07-29T00:26:12;19.50;99.90
3923;DHT22;1976;51.694;6.256;2023-07-29T00:28:37;19.60;99.90
3923;DHT22;1976;51.694;6.256;2023-07-29T00:31:03;19.60;99.90
3923;DHT22;1976;51.694;6.256;2023-07-29T00:33:29;19.60;99.90
3923;DHT22;1976;51.694;6.256;2023-07-29T00:35:54;19.60;99.90
3923;DHT22;1976;51.694;6.256;2023-07-29T00:38:20;19.50;99.90
3923;DHT22;1976;51.694;6.256;2023-07-29T00:40:46;19.50;99.90
3923;DHT22;1976;51.694;6.256;2023-07-29T00:43:11;19.50;99.90
3923;DHT22;1976;51.694;6.256;2023-07-29T00:45:37;19.50;99.90
3923;DHT22;1976;51.694;6.256;2023-07-29T00:48:04;19.50;99.90
3923;DHT22;1976;51.694;6.256;2023-07-29T00:50:31;19.40;99.90
3923;DHT22;1976;51.694;6.256;2023-07-29T00:52:58;19.40;99.90
3923;DHT22;1976;51.694;6.256;2023-07-29T00:55:24;19.40;99.90
3923;DHT22;1976;51.694;6.256;2023-07-29T00:57:51;19.40;99.90
3923;DHT22;1976;51.694;6.256;2023-07-29T01:00:20;19.40;99.90
3923;DHT22;1976;51.694;6.256;2023-07-29T01:02:45;19.30;99.90
3923;DHT22;1976;51.694;6.256;2023-07-29T01:05:12;19.30;99.90
3923;DHT22;1976;51.694;6.256;2023-07-29T01:15:44;19.20;99.90
3923;DHT22;1976;51.694;6.256;2023-07-29T01:18:21;19.10;99.90
3923;DHT22;1976;51.694;6.256;2023-07-29T01:20:47;19.10;99.90
3923;DHT22;1976;51.694;6.256;2023-07-29T01:23:15;19.20;99.90
3923;DHT22;1976;51.694;6.256;2023-07-29T01:25:41;19.20;99.90
3923;DHT22;1976;51.694;6.256;2023-07-29T01:28:07;19.20;99.90
3923;DHT22;1976;51.694;6.256;2023-07-29T01:30:39;19.20;99.90
3923;DHT22;1976;51.694;6.256;2023-07-29T01:33:11;19.20;99.90
3923;DHT22;1976;51.694;6.256;2023-07-29T01:38:19;19.30;99.90
3923;DHT22;1976;51.694;6.256;2023-07-29T01:40:48;19.30;99.90
3923;DHT22;1976;51.694;6.256;2023-07-29T01:43:16;19.30;99.90
3923;DHT22;1976;51.694;6.256;2023-07-29T01:45:43;19.30;99.90
3923;DHT22;1976;51.694;6.256;2023-07-29T01:48:08;19.30;99.90
3923;DHT22;1976;51.694;6.256;2023-07-29T01:50:34;19.30;99.90
3923;DHT22;1976;51.694;6.256;2023-07-29T01:53:00;19.40;99.90
3923;DHT22;1976;51.694;6.256;2023-07-29T01:55:25;19.40;99.90
3923;DHT22;1976;51.694;6.256;2023-07-29T01:57:51;19.40;99.90
3923;DHT22;1976;51.694;6.256;2023-07-29T02:00:18;19.40;99.90
3923;DHT22;1976;51.694;6.256;2023-07-29T02:02:44;19.40;99.90
3923;DHT22;1976;51.694;6.256;2023-07-29T02:05:10;19.40;99.90
3923;DHT22;1976;51.694;6.256;2023-07-29T02:07:36;19.50;99.90
3923;DHT22;1976;51.694;6.256;2023-07-29T02:10:02;19.50;99.90
3923;DHT22;1976;51.694;6.256;2023-07-29T02:12:27;19.40;99.90
3923;DHT22;1976;51.694;6.256;2023-07-29T02:14:53;19.40;99.90
3923;DHT22;1976;51.694;6.256;2023-07-29T02:17:19;19.40;99.90
3923;DHT22;1976;51.694;6.256;2023-07-29T02:19:44;19.40;99.90
3923;DHT22;1976;51.694;6.256;2023-07-29T02:22:13;19.30;99.90
3923;DHT22;1976;51.694;6.256;2023-07-29T02:24:39;19.20;99.90
3923;DHT22;1976;51.694;6.256;2023-07-29T02:27:06;19.30;99.90
3923;DHT22;1976;51.694;6.256;2023-07-29T02:29:31;19.20;99.90
3923;DHT22;1976;51.694;6.256;2023-07-29T02:31:59;19.20;99.90
3923;DHT22;1976;51.694;6.256;2023-07-29T02:34:24;19.20;99.90
3923;DHT22;1976;51.694;6.256;2023-07-29T02:36:50;19.20;99.90
3923;DHT22;1976;51.694;6.256;2023-07-29T02:39:16;19.20;99.90
3923;DHT22;1976;51.694;6.256;2023-07-29T02:41:41;19.30;99.90
3923;DHT22;1976;51.694;6.256;2023-07-29T02:44:07;19.30;99.90
3923;DHT22;1976;51.694;6.256;2023-07-29T02:46:32;19.40;99.90
3923;DHT22;1976;51.694;6.256;2023-07-29T02:48:58;19.40;99.90
3923;DHT22;1976;51.694;6.256;2023-07-29T02:51:24;19.40;99.90
3923;DHT22;1976;51.694;6.256;2023-07-29T02:53:50;19.30;99.90
3923;DHT22;1976;51.694;6.256;2023-07-29T02:56:16;19.40;99.90
3923;DHT22;1976;51.694;6.256;2023-07-29T02:58:41;19.40;99.90
3923;DHT22;1976;51.694;6.256;2023-07-29T03:01:07;19.40;99.90
3923;DHT22;1976;51.694;6.256;2023-07-29T03:03:33;19.50;99.90
3923;DHT22;1976;51.694;6.256;2023-07-29T03:08:25;19.50;99.90
3923;DHT22;1976;51.694;6.256;2023-07-29T03:10:50;19.50;99.90
3923;DHT22;1976;51.694;6.256;2023-07-29T03:13:16;19.60;99.90
3923;DHT22;1976;51.694;6.256;2023-07-29T03:15:41;19.60;99.90
3923;DHT22;1976;51.694;6.256;2023-07-29T03:18:07;19.70;99.90
3923;DHT22;1976;51.694;6.256;2023-07-29T03:20:33;19.70;99.90
3923;DHT22;1976;51.694;6.256;2023-07-29T03:22:58;19.70;99.90
3923;DHT22;1976;51.694;6.256;2023-07-29T03:25:24;19.80;99.90
3923;DHT22;1976;51.694;6.256;2023-07-29T03:27:49;19.80;99.90
3923;DHT22;1976;51.694;6.256;2023-07-29T03:30:15;19.90;99.90
3923;DHT22;1976;51.694;6.256;2023-07-29T03:32:43;19.80;99.90
3923;DHT22;1976;51.694;6.256;2023-07-29T03:35:12;19.80;99.90
3923;DHT22;1976;51.694;6.256;2023-07-29T03:37:38;19.80;99.90
3923;DHT22;1976;51.694;6.256;2023-07-29T03:40:04;19.80;99.90
3923;DHT22;1976;51.694;6.256;2023-07-29T03:42:30;19.60;99.90
3923;DHT22;1976;51.694;6.256;2023-07-29T03:44:55;19.60;99.90
3923;DHT22;1976;51.694;6.256;2023-07-29T03:47:21;19.50;99.90
3923;DHT22;1976;51.694;6.256;2023-07-29T03:49:46;19.50;99.90
3923;DHT22;1976;51.694;6.256;2023-07-29T03:52:12;19.50;99.90
3923;DHT22;1976;51.694;6.256;2023-07-29T03:54:38;19.40;99.90
3923;DHT22;1976;51.694;6.256;2023-07-29T03:57:03;19.30;99.90
3923;DHT22;1976;51.694;6.256;2023-07-29T03:59:29;19.30;99.90
3923;DHT22;1976;51.694;6.256;2023-07-29T04:01:55;19.20;99.90
3923;DHT22;1976;51.694;6.256;2023-07-29T04:04:20;19.20;99.90
3923;DHT22;1976;51.694;6.256;2023-07-29T04:06:46;19.20;99.90
3923;DHT22;1976;51.694;6.256;2023-07-29T04:09:12;19.10;99.90
3923;DHT22;1976;51.694;6.256;2023-07-29T04:11:37;19.10;99.90
3923;DHT22;1976;51.694;6.256;2023-07-29T04:14:03;19.10;99.90
3923;DHT22;1976;51.694;6.256;2023-07-29T04:16:29;19.10;99.90
3923;DHT22;1976;51.694;6.256;2023-07-29T04:18:54;19.10;99.90
3923;DHT22;1976;51.694;6.256;2023-07-29T04:21:20;19.10;99.90
3923;DHT22;1976;51.694;6.256;2023-07-29T04:23:45;19.00;99.90
3923;DHT22;1976;51.694;6.256;2023-07-29T04:26:11;19.00;99.90
3923;DHT22;1976;51.694;6.256;2023-07-29T04:28:37;19.00;99.90
3923;DHT22;1976;51.694;6.256;2023-07-29T04:31:02;19.00;99.90
3923;DHT22;1976;51.694;6.256;2023-07-29T04:33:29;19.00;99.90
3923;DHT22;1976;51.694;6.256;2023-07-29T04:35:55;18.90;99.90
3923;DHT22;1976;51.694;6.256;2023-07-29T04:38:21;18.90;99.90
3923;DHT22;1976;51.694;6.256;2023-07-29T04:40:49;18.80;99.90
3923;DHT22;1976;51.694;6.256;2023-07-29T04:43:14;18.80;99.90
3923;DHT22;1976;51.694;6.256;2023-07-29T04:45:43;18.70;99.90
3923;DHT22;1976;51.694;6.256;2023-07-29T04:48:09;18.70;99.90
3923;DHT22;1976;51.694;6.256;2023-07-29T04:50:35;18.70;99.90
3923;DHT22;1976;51.694;6.256;2023-07-29T04:53:00;18.70;99.90
3923;DHT22;1976;51.694;6.256;2023-07-29T04:55:26;18.70;99.90
3923;DHT22;1976;51.694;6.256;2023-07-29T04:57:51;18.70;99.90
3923;DHT22;1976;51.694;6.256;2023-07-29T05:00:17;18.70;99.90
3923;DHT22;1976;51.694;6.256;2023-07-29T05:02:43;18.70;99.90
3923;DHT22;1976;51.694;6.256;2023-07-29T05:05:08;18.60;99.90
3923;DHT22;1976;51.694;6.256;2023-07-29T05:07:34;18.50;99.90
3923;DHT22;1976;51.694;6.256;2023-07-29T05:10:00;18.50;99.90
3923;DHT22;1976;51.694;6.256;2023-07-29T05:12:25;18.50;99.90
3923;DHT22;1976;51.694;6.256;2023-07-29T05:14:51;18.50;99.90
3923;DHT22;1976;51.694;6.256;2023-07-29T05:17:17;18.40;99.90
3923;DHT22;1976;51.694;6.256;2023-07-29T05:19:42;18.40;99.90
3923;DHT22;1976;51.694;6.256;2023-07-29T05:22:08;18.40;99.90
3923;DHT22;1976;51.694;6.256;2023-07-29T05:24:35;18.50;99.90
3923;DHT22;1976;51.694;6.256;2023-07-29T05:27:01;18.50;99.90
3923;DHT22;1976;51.694;6.256;2023-07-29T05:29:26;18.50;99.90
3923;DHT22;1976;51.694;6.256;2023-07-29T05:31:52;18.40;99.90
3923;DHT22;1976;51.694;6.256;2023-07-29T05:34:17;18.50;99.90
3923;DHT22;1976;51.694;6.256;2023-07-29T05:36:43;18.50;99.90
3923;DHT22;1976;51.694;6.256;2023-07-29T05:39:09;18.50;99.90
3923;DHT22;1976;51.694;6.256;2023-07-29T05:41:34;18.50;99.90
3923;DHT22;1976;51.694;6.256;2023-07-29T05:44:00;18.50;99.90
3923;DHT22;1976;51.694;6.256;2023-07-29T05:46:26;18.50;99.90
3923;DHT22;1976;51.694;6.256;2023-07-29T05:48:51;18.50;99.90
3923;DHT22;1976;51.694;6.256;2023-07-29T05:51:17;18.60;99.90
3923;DHT22;1976;51.694;6.256;2023-07-29T05:53:43;18.70;99.90
3923;DHT22;1976;51.694;6.256;2023-07-29T05:56:08;18.70;99.90
3923;DHT22;1976;51.694;6.256;2023-07-29T05:58:35;18.60;99.90
3923;DHT22;1976;51.694;6.256;2023-07-29T06:01:01;18.60;99.90
3923;DHT22;1976;51.694;6.256;2023-07-29T06:03:26;18.60;99.90
3923;DHT22;1976;51.694;6.256;2023-07-29T06:05:52;18.70;99.90
3923;DHT22;1976;51.694;6.256;2023-07-29T06:08:18;18.70;99.90
3923;DHT22;1976;51.694;6.256;2023-07-29T06:10:43;18.70;99.90
3923;DHT22;1976;51.694;6.256;2023-07-29T06:13:09;18.70;99.90
3923;DHT22;1976;51.694;6.256;2023-07-29T06:15:35;18.60;99.90
3923;DHT22;1976;51.694;6.256;2023-07-29T06:18:00;18.50;99.90
3923;DHT22;1976;51.694;6.256;2023-07-29T06:20:26;18.50;99.90
3923;DHT22;1976;51.694;6.256;2023-07-29T06:22:51;18.50;99.90
3923;DHT22;1976;51.694;6.256;2023-07-29T06:25:17;18.50;99.90
3923;DHT22;1976;51.694;6.256;2023-07-29T06:27:43;18.50;99.90
3923;DHT22;1976;51.694;6.256;2023-07-29T06:30:08;18.60;99.90
3923;DHT22;1976;51.694;6.256;2023-07-29T06:32:34;18.60;99.90
3923;DHT22;1976;51.694;6.256;2023-07-29T06:35:00;18.60;99.90
3923;DHT22;1976;51.694;6.256;2023-07-29T06:37:26;18.80;99.90
3923;DHT22;1976;51.694;6.256;2023-07-29T06:39:51;18.80;99.90
3923;DHT22;1976;51.694;6.256;2023-07-29T06:42:17;18.90;99.90
3923;DHT22;1976;51.694;6.256;2023-07-29T06:44:43;19.10;99.90
3923;DHT22;1976;51.694;6.256;2023-07-29T06:47:11;19.40;99.90
3923;DHT22;1976;51.694;6.256;2023-07-29T06:49:37;19.50;99.90
3923;DHT22;1976;51.694;6.256;2023-07-29T06:52:02;19.70;99.90
3923;DHT22;1976;51.694;6.256;2023-07-29T06:54:28;19.80;99.90
3923;DHT22;1976;51.694;6.256;2023-07-29T06:56:54;20.00;99.90
3923;DHT22;1976;51.694;6.256;2023-07-29T06:59:20;20.10;99.90
3923;DHT22;1976;51.694;6.256;2023-07-29T07:01:46;20.20;99.90
3923;DHT22;1976;51.694;6.256;2023-07-29T07:04:11;20.20;99.90
3923;DHT22;1976;51.694;6.256;2023-07-29T07:06:37;20.20;99.90
3923;DHT22;1976;51.694;6.256;2023-07-29T07:09:03;20.20;99.90
3923;DHT22;1976;51.694;6.256;2023-07-29T07:11:29;20.10;99.90
3923;DHT22;1976;51.694;6.256;2023-07-29T07:13:54;20.00;99.90
3923;DHT22;1976;51.694;6.256;2023-07-29T07:16:20;20.20;99.90
3923;DHT22;1976;51.694;6.256;2023-07-29T07:18:46;20.20;99.90
3923;DHT22;1976;51.694;6.256;2023-07-29T07:21:11;20.00;99.90
3923;DHT22;1976;51.694;6.256;2023-07-29T07:23:38;20.00;99.90
3923;DHT22;1976;51.694;6.256;2023-07-29T07:26:03;20.20;99.90
3923;DHT22;1976;51.694;6.256;2023-07-29T07:28:29;20.30;99.90
3923;DHT22;1976;51.694;6.256;2023-07-29T07:30:55;20.40;99.90
3923;DHT22;1976;51.694;6.256;2023-07-29T07:33:21;20.50;99.90
3923;DHT22;1976;51.694;6.256;2023-07-29T07:35:47;20.60;99.90
3923;DHT22;1976;51.694;6.256;2023-07-29T07:38:12;20.70;99.90
3923;DHT22;1976;51.694;6.256;2023-07-29T07:40:38;20.80;99.90
3923;DHT22;1976;51.694;6.256;2023-07-29T07:43:04;20.90;99.90
3923;DHT22;1976;51.694;6.256;2023-07-29T07:45:31;20.90;99.90
3923;DHT22;1976;51.694;6.256;2023-07-29T07:47:57;20.80;99.90
3923;DHT22;1976;51.694;6.256;2023-07-29T07:50:22;21.10;99.90
3923;DHT22;1976;51.694;6.256;2023-07-29T07:52:49;21.40;99.90
3923;DHT22;1976;51.694;6.256;2023-07-29T07:55:15;21.60;99.90
3923;DHT22;1976;51.694;6.256;2023-07-29T07:57:41;21.60;99.90
3923;DHT22;1976;51.694;6.256;2023-07-29T08:00:07;21.90;99.90
3923;DHT22;1976;51.694;6.256;2023-07-29T08:02:32;22.00;99.90
3923;DHT22;1976;51.694;6.256;2023-07-29T08:04:58;22.00;99.90
3923;DHT22;1976;51.694;6.256;2023-07-29T08:07:23;22.00;99.90
3923;DHT22;1976;51.694;6.256;2023-07-29T08:09:49;21.90;99.90
3923;DHT22;1976;51.694;6.256;2023-07-29T08:12:15;21.90;99.90
3923;DHT22;1976;51.694;6.256;2023-07-29T08:14:40;21.90;99.90
3923;DHT22;1976;51.694;6.256;2023-07-29T08:17:06;21.70;99.90
3923;DHT22;1976;51.694;6.256;2023-07-29T08:19:32;21.80;99.90
3923;DHT22;1976;51.694;6.256;2023-07-29T08:21:57;22.10;99.90
3923;DHT22;1976;51.694;6.256;2023-07-29T08:24:23;22.30;99.90
3923;DHT22;1976;51.694;6.256;2023-07-29T08:26:49;22.50;99.90
3923;DHT22;1976;51.694;6.256;2023-07-29T08:29:15;22.60;99.90
3923;DHT22;1976;51.694;6.256;2023-07-29T08:31:40;22.70;99.90
3923;DHT22;1976;51.694;6.256;2023-07-29T08:34:06;23.10;99.90
3923;DHT22;1976;51.694;6.256;2023-07-29T08:36:32;23.10;99.90
3923;DHT22;1976;51.694;6.256;2023-07-29T08:38:58;23.00;99.90
3923;DHT22;1976;51.694;6.256;2023-07-29T08:41:31;23.00;99.90
3923;DHT22;1976;51.694;6.256;2023-07-29T08:44:23;22.80;99.90
3923;DHT22;1976;51.694;6.256;2023-07-29T08:46:49;22.40;99.90
3923;DHT22;1976;51.694;6.256;2023-07-29T08:49:17;22.20;99.90
3923;DHT22;1976;51.694;6.256;2023-07-29T08:51:48;22.00;99.90
3923;DHT22;1976;51.694;6.256;2023-07-29T08:54:14;21.70;99.90
3923;DHT22;1976;51.694;6.256;2023-07-29T08:56:43;21.50;99.90
3923;DHT22;1976;51.694;6.256;2023-07-29T08:59:09;21.50;99.90
3923;DHT22;1976;51.694;6.256;2023-07-29T09:01:39;21.40;99.90
3923;DHT22;1976;51.694;6.256;2023-07-29T09:04:05;21.40;99.90
3923;DHT22;1976;51.694;6.256;2023-07-29T09:06:31;21.30;99.90
3923;DHT22;1976;51.694;6.256;2023-07-29T09:08:58;21.60;99.90
3923;DHT22;1976;51.694;6.256;2023-07-29T09:11:24;21.80;99.90
3923;DHT22;1976;51.694;6.256;2023-07-29T09:13:50;22.00;99.90
3923;DHT22;1976;51.694;6.256;2023-07-29T09:16:16;21.90;99.90
3923;DHT22;1976;51.694;6.256;2023-07-29T09:18:42;22.10;99.90
3923;DHT22;1976;51.694;6.256;2023-07-29T09:21:07;22.20;99.90
3923;DHT22;1976;51.694;6.256;2023-07-29T09:23:44;22.30;99.90
3923;DHT22;1976;51.694;6.256;2023-07-29T09:26:10;22.70;99.90
3923;DHT22;1976;51.694;6.256;2023-07-29T09:28:38;23.20;99.90
3923;DHT22;1976;51.694;6.256;2023-07-29T09:31:04;23.90;99.90
3923;DHT22;1976;51.694;6.256;2023-07-29T09:33:33;24.80;99.90
3923;DHT22;1976;51.694;6.256;2023-07-29T09:36:07;25.40;99.90
3923;DHT22;1976;51.694;6.256;2023-07-29T09:38:34;25.50;99.90
3923;DHT22;1976;51.694;6.256;2023-07-29T09:41:01;25.20;99.90
3923;DHT22;1976;51.694;6.256;2023-07-29T09:43:34;25.00;99.90
3923;DHT22;1976;51.694;6.256;2023-07-29T09:46:05;24.80;99.90
3923;DHT22;1976;51.694;6.256;2023-07-29T09:48:34;24.70;99.90
3923;DHT22;1976;51.694;6.256;2023-07-29T09:50:59;24.60;99.90
3923;DHT22;1976;51.694;6.256;2023-07-29T09:53:25;25.30;99.90
3923;DHT22;1976;51.694;6.256;2023-07-29T09:55:53;25.90;99.90
3923;DHT22;1976;51.694;6.256;2023-07-29T09:58:28;26.20;99.70
3923;DHT22;1976;51.694;6.256;2023-07-29T10:00:54;26.60;99.00
3923;DHT22;1976;51.694;6.256;2023-07-29T10:03:21;27.20;98.30
3923;DHT22;1976;51.694;6.256;2023-07-29T10:05:47;27.40;97.90
3923;DHT22;1976;51.694;6.256;2023-07-29T10:08:13;27.30;98.40
3923;DHT22;1976;51.694;6.256;2023-07-29T10:10:42;27.30;97.60
3923;DHT22;1976;51.694;6.256;2023-07-29T10:13:09;27.40;97.10
3923;DHT22;1976;51.694;6.256;2023-07-29T10:15:36;26.90;97.70
3923;DHT22;1976;51.694;6.256;2023-07-29T10:18:02;26.40;98.30
3923;DHT22;1976;51.694;6.256;2023-07-29T10:20:30;25.60;99.10
3923;DHT22;1976;51.694;6.256;2023-07-29T10:23:01;25.10;99.90
3923;DHT22;1976;51.694;6.256;2023-07-29T10:25:38;25.30;99.90
3923;DHT22;1976;51.694;6.256;2023-07-29T10:28:06;25.20;99.90
3923;DHT22;1976;51.694;6.256;2023-07-29T10:30:33;24.70;99.90
3923;DHT22;1976;51.694;6.256;2023-07-29T10:33:02;24.80;99.90
3923;DHT22;1976;51.694;6.256;2023-07-29T10:35:28;24.50;99.90
3923;DHT22;1976;51.694;6.256;2023-07-29T10:37:55;24.10;99.90
3923;DHT22;1976;51.694;6.256;2023-07-29T10:40:21;23.90;99.90
3923;DHT22;1976;51.694;6.256;2023-07-29T10:43:09;23.50;99.90
3923;DHT22;1976;51.694;6.256;2023-07-29T10:45:40;23.50;99.90
3923;DHT22;1976;51.694;6.256;2023-07-29T10:51:34;24.60;99.90
3923;DHT22;1976;51.694;6.256;2023-07-29T10:54:11;24.60;99.90
3923;DHT22;1976;51.694;6.256;2023-07-29T10:56:51;24.40;99.90
3923;DHT22;1976;51.694;6.256;2023-07-29T11:01:57;23.80;99.90
3923;DHT22;1976;51.694;6.256;2023-07-29T11:07:22;26.90;99.90
3923;DHT22;1976;51.694;6.256;2023-07-29T11:18:06;31.90;90.40
3923;DHT22;1976;51.694;6.256;2023-07-29T11:20:33;30.20;91.40
3923;DHT22;1976;51.694;6.256;2023-07-29T11:23:00;29.20;92.20
3923;DHT22;1976;51.694;6.256;2023-07-29T11:25:28;28.60;94.00
3923;DHT22;1976;51.694;6.256;2023-07-29T11:27:55;28.00;94.80
3923;DHT22;1976;51.694;6.256;2023-07-29T11:30:21;28.30;94.40
3923;DHT22;1976;51.694;6.256;2023-07-29T11:32:48;29.50;94.40
3923;DHT22;1976;51.694;6.256;2023-07-29T11:35:17;31.10;92.30
3923;DHT22;1976;51.694;6.256;2023-07-29T11:37:45;31.40;91.20
3923;DHT22;1976;51.694;6.256;2023-07-29T11:40:16;29.90;92.00
3923;DHT22;1976;51.694;6.256;2023-07-29T11:42:42;28.30;93.10
3923;DHT22;1976;51.694;6.256;2023-07-29T11:45:09;27.40;94.80
3923;DHT22;1976;51.694;6.256;2023-07-29T11:47:35;26.90;96.40
3923;DHT22;1976;51.694;6.256;2023-07-29T11:50:07;26.70;96.40
3923;DHT22;1976;51.694;6.256;2023-07-29T11:52:37;26.40;96.40
3923;DHT22;1976;51.694;6.256;2023-07-29T11:55:04;26.50;97.20
3923;DHT22;1976;51.694;6.256;2023-07-29T11:57:31;26.60;96.30
3923;DHT22;1976;51.694;6.256;2023-07-29T11:59:59;26.60;95.90
3923;DHT22;1976;51.694;6.256;2023-07-29T12:02:25;26.40;97.50
3923;DHT22;1976;51.694;6.256;2023-07-29T12:04:52;26.60;96.50
3923;DHT22;1976;51.694;6.256;2023-07-29T12:07:18;26.70;96.30
3923;DHT22;1976;51.694;6.256;2023-07-29T12:09:46;26.20;96.90
3923;DHT22;1976;51.694;6.256;2023-07-29T12:12:12;25.60;97.00
3923;DHT22;1976;51.694;6.256;2023-07-29T12:14:38;25.30;97.70
3923;DHT22;1976;51.694;6.256;2023-07-29T12:17:05;25.10;98.00
3923;DHT22;1976;51.694;6.256;2023-07-29T12:19:36;25.40;97.50
3923;DHT22;1976;51.694;6.256;2023-07-29T12:22:03;25.80;97.80
3923;DHT22;1976;51.694;6.256;2023-07-29T12:24:33;26.50;97.00
3923;DHT22;1976;51.694;6.256;2023-07-29T12:26:59;26.70;97.30
3923;DHT22;1976;51.694;6.256;2023-07-29T12:29:26;27.20;96.10
3923;DHT22;1976;51.694;6.256;2023-07-29T12:32:04;26.70;96.70
3923;DHT22;1976;51.694;6.256;2023-07-29T12:34:30;26.20;98.30
3923;DHT22;1976;51.694;6.256;2023-07-29T12:36:58;25.90;97.90
3923;DHT22;1976;51.694;6.256;2023-07-29T12:39:26;25.80;99.20
3923;DHT22;1976;51.694;6.256;2023-07-29T12:41:53;25.50;99.70
3923;DHT22;1976;51.694;6.256;2023-07-29T12:44:19;25.30;99.00
3923;DHT22;1976;51.694;6.256;2023-07-29T12:46:45;25.10;99.30
3923;DHT22;1976;51.694;6.256;2023-07-29T12:49:11;25.10;99.20
3923;DHT22;1976;51.694;6.256;2023-07-29T12:51:37;25.10;99.50
3923;DHT22;1976;51.694;6.256;2023-07-29T12:54:04;25.10;99.90
3923;DHT22;1976;51.694;6.256;2023-07-29T12:56:30;25.10;99.00
3923;DHT22;1976;51.694;6.256;2023-07-29T12:58:57;24.80;98.00
3923;DHT22;1976;51.694;6.256;2023-07-29T13:01:24;24.50;97.80
3923;DHT22;1976;51.694;6.256;2023-07-29T13:03:50;24.10;98.10
3923;DHT22;1976;51.694;6.256;2023-07-29T13:06:15;23.70;98.60
3923;DHT22;1976;51.694;6.256;2023-07-29T13:08:42;23.50;99.10
3923;DHT22;1976;51.694;6.256;2023-07-29T13:11:08;23.30;99.80
3923;DHT22;1976;51.694;6.256;2023-07-29T13:13:33;23.10;99.90
3923;DHT22;1976;51.694;6.256;2023-07-29T13:15:59;22.70;99.90
3923;DHT22;1976;51.694;6.256;2023-07-29T13:18:25;22.30;99.90
3923;DHT22;1976;51.694;6.256;2023-07-29T13:20:50;21.90;99.90
3923;DHT22;1976;51.694;6.256;2023-07-29T13:23:16;21.60;99.90
3923;DHT22;1976;51.694;6.256;2023-07-29T13:25:42;21.30;99.90
3923;DHT22;1976;51.694;6.256;2023-07-29T13:28:09;21.10;99.90
3923;DHT22;1976;51.694;6.256;2023-07-29T13:30:35;20.80;99.90
3923;DHT22;1976;51.694;6.256;2023-07-29T13:33:00;20.20;99.90
3923;DHT22;1976;51.694;6.256;2023-07-29T13:35:26;19.60;99.90
3923;DHT22;1976;51.694;6.256;2023-07-29T13:37:52;19.20;99.90
3923;DHT22;1976;51.694;6.256;2023-07-29T13:40:18;19.10;99.90
3923;DHT22;1976;51.694;6.256;2023-07-29T13:42:43;19.00;99.90
3923;DHT22;1976;51.694;6.256;2023-07-29T13:45:09;18.90;99.90
3923;DHT22;1976;51.694;6.256;2023-07-29T13:47:35;18.90;99.90
3923;DHT22;1976;51.694;6.256;2023-07-29T13:50:01;19.00;99.90
3923;DHT22;1976;51.694;6.256;2023-07-29T13:52:27;18.90;99.90
3923;DHT22;1976;51.694;6.256;2023-07-29T13:54:52;18.90;99.90
3923;DHT22;1976;51.694;6.256;2023-07-29T13:57:18;19.10;99.90
3923;DHT22;1976;51.694;6.256;2023-07-29T13:59:43;19.30;99.90
3923;DHT22;1976;51.694;6.256;2023-07-29T14:02:09;20.20;99.90
3923;DHT22;1976;51.694;6.256;2023-07-29T14:04:35;20.90;99.90
3923;DHT22;1976;51.694;6.256;2023-07-29T14:07:00;21.50;99.90
3923;DHT22;1976;51.694;6.256;2023-07-29T14:09:27;22.70;99.90
3923;DHT22;1976;51.694;6.256;2023-07-29T14:11:54;24.30;99.90
3923;DHT22;1976;51.694;6.256;2023-07-29T14:14:20;25.60;99.90
3923;DHT22;1976;51.694;6.256;2023-07-29T14:16:46;25.70;99.90
3923;DHT22;1976;51.694;6.256;2023-07-29T14:19:12;26.00;99.90
3923;DHT22;1976;51.694;6.256;2023-07-29T14:21:38;26.60;99.90
3923;DHT22;1976;51.694;6.256;2023-07-29T14:24:03;27.10;99.90
3923;DHT22;1976;51.694;6.256;2023-07-29T14:26:29;27.40;99.90
3923;DHT22;1976;51.694;6.256;2023-07-29T14:28:55;27.80;99.90
3923;DHT22;1976;51.694;6.256;2023-07-29T14:31:20;28.10;99.90
3923;DHT22;1976;51.694;6.256;2023-07-29T14:33:46;28.50;99.90
3923;DHT22;1976;51.694;6.256;2023-07-29T14:36:12;28.60;99.90
3923;DHT22;1976;51.694;6.256;2023-07-29T14:38:37;28.50;99.90
3923;DHT22;1976;51.694;6.256;2023-07-29T14:41:03;28.50;99.90
3923;DHT22;1976;51.694;6.256;2023-07-29T14:43:30;28.40;99.90
3923;DHT22;1976;51.694;6.256;2023-07-29T14:45:56;27.90;99.90
3923;DHT22;1976;51.694;6.256;2023-07-29T14:48:22;28.00;99.90
3923;DHT22;1976;51.694;6.256;2023-07-29T14:50:48;28.00;99.90
3923;DHT22;1976;51.694;6.256;2023-07-29T14:53:14;28.40;99.90
3923;DHT22;1976;51.694;6.256;2023-07-29T14:55:39;28.50;99.70
3923;DHT22;1976;51.694;6.256;2023-07-29T14:58:05;28.70;99.90
3923;DHT22;1976;51.694;6.256;2023-07-29T15:00:31;28.70;99.00
3923;DHT22;1976;51.694;6.256;2023-07-29T15:02:56;28.10;98.70
3923;DHT22;1976;51.694;6.256;2023-07-29T15:05:22;28.00;99.90
3923;DHT22;1976;51.694;6.256;2023-07-29T15:07:48;28.40;99.90
3923;DHT22;1976;51.694;6.256;2023-07-29T15:10:17;28.70;99.90
3923;DHT22;1976;51.694;6.256;2023-07-29T15:12:46;28.40;99.50
3923;DHT22;1976;51.694;6.256;2023-07-29T15:15:12;27.60;99.90
3923;DHT22;1976;51.694;6.256;2023-07-29T15:17:37;27.00;99.90
3923;DHT22;1976;51.694;6.256;2023-07-29T15:20:04;26.60;99.90
3923;DHT22;1976;51.694;6.256;2023-07-29T15:22:30;26.40;99.90
3923;DHT22;1976;51.694;6.256;2023-07-29T15:24:59;26.50;99.90
3923;DHT22;1976;51.694;6.256;2023-07-29T15:27:29;26.80;99.90
3923;DHT22;1976;51.694;6.256;2023-07-29T15:29:55;26.90;99.90
3923;DHT22;1976;51.694;6.256;2023-07-29T15:32:21;27.30;99.90
3923;DHT22;1976;51.694;6.256;2023-07-29T15:34:48;27.30;99.90
3923;DHT22;1976;51.694;6.256;2023-07-29T15:37:14;27.60;99.90
3923;DHT22;1976;51.694;6.256;2023-07-29T15:39:39;28.20;98.70
3923;DHT22;1976;51.694;6.256;2023-07-29T15:42:05;28.40;98.90
3923;DHT22;1976;51.694;6.256;2023-07-29T15:44:31;28.50;99.60
3923;DHT22;1976;51.694;6.256;2023-07-29T15:46:56;28.00;99.00
3923;DHT22;1976;51.694;6.256;2023-07-29T15:49:22;27.00;99.40
3923;DHT22;1976;51.694;6.256;2023-07-29T15:51:48;26.20;99.90
3923;DHT22;1976;51.694;6.256;2023-07-29T15:54:14;25.80;99.90
3923;DHT22;1976;51.694;6.256;2023-07-29T15:56:39;25.80;99.90
3923;DHT22;1976;51.694;6.256;2023-07-29T15:59:07;25.90;99.90
3923;DHT22;1976;51.694;6.256;2023-07-29T16:01:33;26.50;99.90
3923;DHT22;1976;51.694;6.256;2023-07-29T16:03:58;26.80;99.90
3923;DHT22;1976;51.694;6.256;2023-07-29T16:06:25;26.50;99.90
3923;DHT22;1976;51.694;6.256;2023-07-29T16:08:51;26.30;99.90
3923;DHT22;1976;51.694;6.256;2023-07-29T16:11:17;25.90;99.90
3923;DHT22;1976;51.694;6.256;2023-07-29T16:13:43;25.60;99.90
3923;DHT22;1976;51.694;6.256;2023-07-29T16:16:10;25.20;99.90
3923;DHT22;1976;51.694;6.256;2023-07-29T16:18:36;24.90;99.90
3923;DHT22;1976;51.694;6.256;2023-07-29T16:21:02;24.60;99.90
3923;DHT22;1976;51.694;6.256;2023-07-29T16:23:28;24.40;99.90
3923;DHT22;1976;51.694;6.256;2023-07-29T16:25:54;24.20;99.90
3923;DHT22;1976;51.694;6.256;2023-07-29T16:28:20;23.90;99.90